KLBL/LBL METAR and TAF weather

Enter ICAO airport designator
Station Type Date Time Source
KLBL METAR 2019/06/26 19:56 UTC NOAA

KLBL 261956Z AUTO 19020G27KT 10SM CLR 32/17 A3003 RMK AO2 PK WND 18029/1915 SLP132 T03220167


Station Type Date Time Source
KLBL Decoded METAR 2019/06/26 19:56 UTC NOAA

Liberal, Liberal Municipal Airport, KS, United States (KLBL) 37-03N 100-58W
Jun 26, 2019 - 03:56 PM EDT / 2019.06.26 1956 UTC
Wind: from the S (190 degrees) at 23 MPH (20 KT) gusting to 31 MPH (27 KT):0
Visibility: 10 mile(s):0
Sky conditions: clear
Temperature: 90.0 F (32.2 C)
Dew Point: 62.1 F (16.7 C)
Relative Humidity: 39%
Pressure (altimeter): 30.03 in. Hg (1016 hPa)
ob: KLBL 261956Z AUTO 19020G27KT 10SM CLR 32/17 A3003 RMK AO2 PK WND 18029/1915 SLP132 T03220167
cycle: 20

Station Type Date Time Source
KLBL TAF 2019/06/26 18:21 UTC NOAA

TAF KLBL 261720Z 2618/2718 18015G25KT P6SM SCT250
FM270800 18012KT P6SM FEW250

Example: see airport list